sensor_id;sensor_type;location;lat;lon;timestamp;temperature;humidity
15934;DHT22;8066;48.776;11.384;2022-07-23T00:01:28;29.60;38.10
15934;DHT22;8066;48.776;11.384;2022-07-23T00:03:55;29.60;38.30
15934;DHT22;8066;48.776;11.384;2022-07-23T00:06:24;29.60;38.30
15934;DHT22;8066;48.776;11.384;2022-07-23T00:08:51;29.50;38.50
15934;DHT22;8066;48.776;11.384;2022-07-23T00:11:19;29.50;38.30
15934;DHT22;8066;48.776;11.384;2022-07-23T00:13:47;29.50;38.40
15934;DHT22;8066;48.776;11.384;2022-07-23T00:16:14;29.50;38.40
15934;DHT22;8066;48.776;11.384;2022-07-23T00:18:41;29.50;38.30
15934;DHT22;8066;48.776;11.384;2022-07-23T00:21:08;29.50;38.30
15934;DHT22;8066;48.776;11.384;2022-07-23T00:23:36;29.40;38.30
15934;DHT22;8066;48.776;11.384;2022-07-23T00:26:04;29.40;38.40
15934;DHT22;8066;48.776;11.384;2022-07-23T00:28:33;29.40;38.40
15934;DHT22;8066;48.776;11.384;2022-07-23T00:31:00;29.50;38.50
15934;DHT22;8066;48.776;11.384;2022-07-23T00:33:27;29.40;38.50
15934;DHT22;8066;48.776;11.384;2022-07-23T00:35:53;29.40;38.50
15934;DHT22;8066;48.776;11.384;2022-07-23T00:38:20;29.40;38.60
15934;DHT22;8066;48.776;11.384;2022-07-23T00:40:48;29.40;38.70
15934;DHT22;8066;48.776;11.384;2022-07-23T00:43:15;29.40;38.70
15934;DHT22;8066;48.776;11.384;2022-07-23T00:45:42;29.40;38.60
15934;DHT22;8066;48.776;11.384;2022-07-23T00:48:09;29.40;38.70
15934;DHT22;8066;48.776;11.384;2022-07-23T00:50:36;29.30;38.60
15934;DHT22;8066;48.776;11.384;2022-07-23T00:53:03;29.30;38.60
15934;DHT22;8066;48.776;11.384;2022-07-23T00:55:31;29.30;38.60
15934;DHT22;8066;48.776;11.384;2022-07-23T00:58:01;29.30;38.60
15934;DHT22;8066;48.776;11.384;2022-07-23T01:00:29;29.30;38.80
15934;DHT22;8066;48.776;11.384;2022-07-23T01:02:56;29.20;38.70
15934;DHT22;8066;48.776;11.384;2022-07-23T01:05:23;29.20;38.80
15934;DHT22;8066;48.776;11.384;2022-07-23T01:07:51;29.20;38.90
15934;DHT22;8066;48.776;11.384;2022-07-23T01:10:18;29.20;39.10
15934;DHT22;8066;48.776;11.384;2022-07-23T01:12:57;29.20;39.30
15934;DHT22;8066;48.776;11.384;2022-07-23T01:15:26;29.20;39.30
15934;DHT22;8066;48.776;11.384;2022-07-23T01:17:53;29.10;39.20
15934;DHT22;8066;48.776;11.384;2022-07-23T01:20:21;29.00;39.10
15934;DHT22;8066;48.776;11.384;2022-07-23T01:22:50;29.10;39.20
15934;DHT22;8066;48.776;11.384;2022-07-23T01:25:17;29.00;39.30
15934;DHT22;8066;48.776;11.384;2022-07-23T01:27:44;28.90;39.50
15934;DHT22;8066;48.776;11.384;2022-07-23T01:30:12;28.90;39.80
15934;DHT22;8066;48.776;11.384;2022-07-23T01:32:39;28.80;40.10
15934;DHT22;8066;48.776;11.384;2022-07-23T01:35:07;28.80;40.30
15934;DHT22;8066;48.776;11.384;2022-07-23T01:37:35;28.70;40.50
15934;DHT22;8066;48.776;11.384;2022-07-23T01:40:05;28.70;40.70
15934;DHT22;8066;48.776;11.384;2022-07-23T01:42:33;28.70;41.20
15934;DHT22;8066;48.776;11.384;2022-07-23T01:45:02;28.60;41.20
15934;DHT22;8066;48.776;11.384;2022-07-23T01:47:29;28.60;41.40
15934;DHT22;8066;48.776;11.384;2022-07-23T01:49:56;28.60;41.60
15934;DHT22;8066;48.776;11.384;2022-07-23T01:52:23;28.50;41.70
15934;DHT22;8066;48.776;11.384;2022-07-23T01:54:50;28.40;42.20
15934;DHT22;8066;48.776;11.384;2022-07-23T01:57:18;28.40;42.50
15934;DHT22;8066;48.776;11.384;2022-07-23T01:59:45;28.20;42.80
15934;DHT22;8066;48.776;11.384;2022-07-23T02:02:12;28.20;43.20
15934;DHT22;8066;48.776;11.384;2022-07-23T02:04:39;28.20;43.70
15934;DHT22;8066;48.776;11.384;2022-07-23T02:07:06;28.00;43.70
15934;DHT22;8066;48.776;11.384;2022-07-23T02:09:33;27.90;44.00
15934;DHT22;8066;48.776;11.384;2022-07-23T02:12:00;27.80;44.20
15934;DHT22;8066;48.776;11.384;2022-07-23T02:14:28;27.70;44.60
15934;DHT22;8066;48.776;11.384;2022-07-23T02:16:55;27.60;45.50
15934;DHT22;8066;48.776;11.384;2022-07-23T02:19:22;27.60;45.10
15934;DHT22;8066;48.776;11.384;2022-07-23T02:21:49;27.50;45.50
15934;DHT22;8066;48.776;11.384;2022-07-23T02:24:16;27.40;45.90
15934;DHT22;8066;48.776;11.384;2022-07-23T02:26:43;27.30;46.40
15934;DHT22;8066;48.776;11.384;2022-07-23T02:29:10;27.20;46.20
15934;DHT22;8066;48.776;11.384;2022-07-23T02:31:39;27.10;46.40
15934;DHT22;8066;48.776;11.384;2022-07-23T02:34:06;27.00;47.20
15934;DHT22;8066;48.776;11.384;2022-07-23T02:36:36;27.00;46.50
15934;DHT22;8066;48.776;11.384;2022-07-23T02:39:04;26.90;46.80
15934;DHT22;8066;48.776;11.384;2022-07-23T02:41:31;26.90;47.00
15934;DHT22;8066;48.776;11.384;2022-07-23T02:43:57;26.90;47.00
15934;DHT22;8066;48.776;11.384;2022-07-23T02:46:24;26.80;47.10
15934;DHT22;8066;48.776;11.384;2022-07-23T02:48:52;26.80;47.90
15934;DHT22;8066;48.776;11.384;2022-07-23T02:51:19;26.80;47.60
15934;DHT22;8066;48.776;11.384;2022-07-23T02:53:46;26.70;47.40
15934;DHT22;8066;48.776;11.384;2022-07-23T02:56:13;26.70;47.70
15934;DHT22;8066;48.776;11.384;2022-07-23T02:58:40;26.60;47.90
15934;DHT22;8066;48.776;11.384;2022-07-23T03:01:06;26.60;48.00
15934;DHT22;8066;48.776;11.384;2022-07-23T03:03:33;26.60;48.20
15934;DHT22;8066;48.776;11.384;2022-07-23T03:06:01;26.60;48.20
15934;DHT22;8066;48.776;11.384;2022-07-23T03:08:29;26.60;48.30
15934;DHT22;8066;48.776;11.384;2022-07-23T03:10:55;26.50;48.90
15934;DHT22;8066;48.776;11.384;2022-07-23T03:13:22;26.50;48.70
15934;DHT22;8066;48.776;11.384;2022-07-23T03:15:49;26.50;48.70
15934;DHT22;8066;48.776;11.384;2022-07-23T03:18:16;26.50;49.00
15934;DHT22;8066;48.776;11.384;2022-07-23T03:20:43;26.40;49.00
15934;DHT22;8066;48.776;11.384;2022-07-23T03:23:11;26.30;49.10
15934;DHT22;8066;48.776;11.384;2022-07-23T03:25:38;26.30;49.30
15934;DHT22;8066;48.776;11.384;2022-07-23T03:28:05;26.20;49.30
15934;DHT22;8066;48.776;11.384;2022-07-23T03:30:32;26.20;49.40
15934;DHT22;8066;48.776;11.384;2022-07-23T03:32:59;26.20;49.60
15934;DHT22;8066;48.776;11.384;2022-07-23T03:35:26;26.20;49.60
15934;DHT22;8066;48.776;11.384;2022-07-23T03:37:53;26.10;49.70
15934;DHT22;8066;48.776;11.384;2022-07-23T03:40:21;26.10;49.70
15934;DHT22;8066;48.776;11.384;2022-07-23T03:42:48;26.10;49.90
15934;DHT22;8066;48.776;11.384;2022-07-23T03:45:15;26.10;49.70
15934;DHT22;8066;48.776;11.384;2022-07-23T03:47:42;26.10;49.80
15934;DHT22;8066;48.776;11.384;2022-07-23T03:50:10;26.10;49.90
15934;DHT22;8066;48.776;11.384;2022-07-23T03:52:37;26.10;49.90
15934;DHT22;8066;48.776;11.384;2022-07-23T03:55:05;26.10;50.00
15934;DHT22;8066;48.776;11.384;2022-07-23T03:57:34;26.10;50.10
15934;DHT22;8066;48.776;11.384;2022-07-23T04:00:02;26.00;50.20
15934;DHT22;8066;48.776;11.384;2022-07-23T04:02:29;26.00;50.10
15934;DHT22;8066;48.776;11.384;2022-07-23T04:04:56;26.00;50.30
15934;DHT22;8066;48.776;11.384;2022-07-23T04:07:23;26.00;50.30
15934;DHT22;8066;48.776;11.384;2022-07-23T04:09:50;26.00;50.50
15934;DHT22;8066;48.776;11.384;2022-07-23T04:12:17;26.10;50.70
15934;DHT22;8066;48.776;11.384;2022-07-23T04:14:45;26.10;50.80
15934;DHT22;8066;48.776;11.384;2022-07-23T04:17:12;26.00;51.00
15934;DHT22;8066;48.776;11.384;2022-07-23T04:19:39;26.10;50.90
15934;DHT22;8066;48.776;11.384;2022-07-23T04:22:07;26.10;51.00
15934;DHT22;8066;48.776;11.384;2022-07-23T04:24:34;26.10;51.10
15934;DHT22;8066;48.776;11.384;2022-07-23T04:27:02;26.10;51.10
15934;DHT22;8066;48.776;11.384;2022-07-23T04:29:29;26.10;51.20
15934;DHT22;8066;48.776;11.384;2022-07-23T04:31:58;26.10;51.20
15934;DHT22;8066;48.776;11.384;2022-07-23T04:34:25;26.20;51.60
15934;DHT22;8066;48.776;11.384;2022-07-23T04:36:52;26.20;51.50
15934;DHT22;8066;48.776;11.384;2022-07-23T04:39:19;26.20;51.60
15934;DHT22;8066;48.776;11.384;2022-07-23T04:41:46;26.20;51.70
15934;DHT22;8066;48.776;11.384;2022-07-23T04:44:13;26.20;51.60
15934;DHT22;8066;48.776;11.384;2022-07-23T04:46:40;26.20;51.70
15934;DHT22;8066;48.776;11.384;2022-07-23T04:49:08;26.30;51.70
15934;DHT22;8066;48.776;11.384;2022-07-23T04:51:35;26.20;51.80
15934;DHT22;8066;48.776;11.384;2022-07-23T04:54:02;26.10;51.70
15934;DHT22;8066;48.776;11.384;2022-07-23T04:56:29;26.30;51.90
15934;DHT22;8066;48.776;11.384;2022-07-23T04:58:56;26.20;51.90
15934;DHT22;8066;48.776;11.384;2022-07-23T05:01:23;26.20;52.00
15934;DHT22;8066;48.776;11.384;2022-07-23T05:03:50;26.30;52.80
15934;DHT22;8066;48.776;11.384;2022-07-23T05:06:18;26.30;52.20
15934;DHT22;8066;48.776;11.384;2022-07-23T05:08:45;26.30;52.40
15934;DHT22;8066;48.776;11.384;2022-07-23T05:11:12;26.30;52.40
15934;DHT22;8066;48.776;11.384;2022-07-23T05:13:39;26.40;52.50
15934;DHT22;8066;48.776;11.384;2022-07-23T05:16:06;26.30;52.30
15934;DHT22;8066;48.776;11.384;2022-07-23T05:18:33;26.40;52.40
15934;DHT22;8066;48.776;11.384;2022-07-23T05:21:00;26.40;52.30
15934;DHT22;8066;48.776;11.384;2022-07-23T05:23:28;26.40;52.50
15934;DHT22;8066;48.776;11.384;2022-07-23T05:25:55;26.40;52.60
15934;DHT22;8066;48.776;11.384;2022-07-23T05:28:21;26.40;52.50
15934;DHT22;8066;48.776;11.384;2022-07-23T05:30:48;26.40;52.50
15934;DHT22;8066;48.776;11.384;2022-07-23T05:33:16;26.40;52.50
15934;DHT22;8066;48.776;11.384;2022-07-23T05:35:44;26.40;52.50
15934;DHT22;8066;48.776;11.384;2022-07-23T05:38:11;26.40;52.50
15934;DHT22;8066;48.776;11.384;2022-07-23T05:40:39;26.50;52.60
15934;DHT22;8066;48.776;11.384;2022-07-23T05:43:06;26.50;52.50
15934;DHT22;8066;48.776;11.384;2022-07-23T05:45:33;26.50;52.50
15934;DHT22;8066;48.776;11.384;2022-07-23T05:48:00;26.50;52.40
15934;DHT22;8066;48.776;11.384;2022-07-23T05:50:27;26.60;52.60
15934;DHT22;8066;48.776;11.384;2022-07-23T05:52:53;26.60;52.60
15934;DHT22;8066;48.776;11.384;2022-07-23T05:55:20;26.60;52.50
15934;DHT22;8066;48.776;11.384;2022-07-23T05:57:48;26.70;52.60
15934;DHT22;8066;48.776;11.384;2022-07-23T06:00:15;26.80;52.70
15934;DHT22;8066;48.776;11.384;2022-07-23T06:02:42;26.80;52.50
15934;DHT22;8066;48.776;11.384;2022-07-23T06:05:09;26.90;52.50
15934;DHT22;8066;48.776;11.384;2022-07-23T06:07:36;27.00;52.50
15934;DHT22;8066;48.776;11.384;2022-07-23T06:10:04;27.10;52.50
15934;DHT22;8066;48.776;11.384;2022-07-23T06:12:31;27.10;52.40
15934;DHT22;8066;48.776;11.384;2022-07-23T06:14:59;27.10;52.30
15934;DHT22;8066;48.776;11.384;2022-07-23T06:17:27;27.20;52.30
15934;DHT22;8066;48.776;11.384;2022-07-23T06:19:55;27.20;52.30
15934;DHT22;8066;48.776;11.384;2022-07-23T06:22:22;27.20;52.30
15934;DHT22;8066;48.776;11.384;2022-07-23T06:24:50;27.10;52.10
15934;DHT22;8066;48.776;11.384;2022-07-23T06:27:18;27.20;52.20
15934;DHT22;8066;48.776;11.384;2022-07-23T06:29:45;27.20;52.20
15934;DHT22;8066;48.776;11.384;2022-07-23T06:32:13;27.20;52.80
15934;DHT22;8066;48.776;11.384;2022-07-23T06:34:40;27.20;52.30
15934;DHT22;8066;48.776;11.384;2022-07-23T06:37:07;27.20;52.20
15934;DHT22;8066;48.776;11.384;2022-07-23T06:39:34;27.20;52.30
15934;DHT22;8066;48.776;11.384;2022-07-23T06:42:01;27.20;52.40
15934;DHT22;8066;48.776;11.384;2022-07-23T06:44:28;27.20;52.40
15934;DHT22;8066;48.776;11.384;2022-07-23T06:46:54;27.40;52.50
15934;DHT22;8066;48.776;11.384;2022-07-23T06:49:23;27.30;52.30
15934;DHT22;8066;48.776;11.384;2022-07-23T06:51:50;27.30;52.40
15934;DHT22;8066;48.776;11.384;2022-07-23T06:54:16;27.40;52.70
15934;DHT22;8066;48.776;11.384;2022-07-23T06:56:43;27.40;52.30
15934;DHT22;8066;48.776;11.384;2022-07-23T06:59:10;27.60;52.60
15934;DHT22;8066;48.776;11.384;2022-07-23T07:01:37;27.50;52.40
15934;DHT22;8066;48.776;11.384;2022-07-23T07:04:05;27.60;52.30
15934;DHT22;8066;48.776;11.384;2022-07-23T07:06:33;27.70;52.30
15934;DHT22;8066;48.776;11.384;2022-07-23T07:09:00;27.90;52.40
15934;DHT22;8066;48.776;11.384;2022-07-23T07:11:27;27.90;52.50
15934;DHT22;8066;48.776;11.384;2022-07-23T07:13:54;28.20;52.90
15934;DHT22;8066;48.776;11.384;2022-07-23T07:16:21;28.40;53.40
15934;DHT22;8066;48.776;11.384;2022-07-23T07:18:48;28.70;53.50
15934;DHT22;8066;48.776;11.384;2022-07-23T07:21:14;29.10;53.00
15934;DHT22;8066;48.776;11.384;2022-07-23T07:23:43;29.50;52.10
15934;DHT22;8066;48.776;11.384;2022-07-23T07:26:10;29.80;51.10
15934;DHT22;8066;48.776;11.384;2022-07-23T07:28:36;30.00;50.60
15934;DHT22;8066;48.776;11.384;2022-07-23T07:31:03;30.10;50.00
15934;DHT22;8066;48.776;11.384;2022-07-23T07:33:30;30.20;49.60
15934;DHT22;8066;48.776;11.384;2022-07-23T07:35:57;30.30;49.30
15934;DHT22;8066;48.776;11.384;2022-07-23T07:38:25;30.30;49.00
15934;DHT22;8066;48.776;11.384;2022-07-23T07:40:54;30.40;48.60
15934;DHT22;8066;48.776;11.384;2022-07-23T07:43:21;30.40;48.30
15934;DHT22;8066;48.776;11.384;2022-07-23T07:45:47;30.40;48.20
15934;DHT22;8066;48.776;11.384;2022-07-23T07:48:14;30.40;48.20
15934;DHT22;8066;48.776;11.384;2022-07-23T07:50:41;30.40;48.50
15934;DHT22;8066;48.776;11.384;2022-07-23T07:53:08;30.60;49.00
15934;DHT22;8066;48.776;11.384;2022-07-23T07:55:35;30.80;49.40
15934;DHT22;8066;48.776;11.384;2022-07-23T07:58:03;31.10;49.60
15934;DHT22;8066;48.776;11.384;2022-07-23T08:00:30;31.40;48.80
15934;DHT22;8066;48.776;11.384;2022-07-23T08:02:58;31.70;48.20
15934;DHT22;8066;48.776;11.384;2022-07-23T08:05:27;32.00;47.50
15934;DHT22;8066;48.776;11.384;2022-07-23T08:07:55;32.10;46.60
15934;DHT22;8066;48.776;11.384;2022-07-23T08:10:24;32.20;46.10
15934;DHT22;8066;48.776;11.384;2022-07-23T08:12:53;32.10;45.60
15934;DHT22;8066;48.776;11.384;2022-07-23T08:15:24;32.20;45.30
15934;DHT22;8066;48.776;11.384;2022-07-23T08:17:53;32.10;45.10
15934;DHT22;8066;48.776;11.384;2022-07-23T08:20:22;32.10;45.20
15934;DHT22;8066;48.776;11.384;2022-07-23T08:22:51;31.90;45.00
15934;DHT22;8066;48.776;11.384;2022-07-23T08:25:21;31.90;45.10
15934;DHT22;8066;48.776;11.384;2022-07-23T08:27:49;31.70;45.00
15934;DHT22;8066;48.776;11.384;2022-07-23T08:30:17;31.70;45.10
15934;DHT22;8066;48.776;11.384;2022-07-23T08:32:50;31.60;45.20
15934;DHT22;8066;48.776;11.384;2022-07-23T08:35:22;31.50;45.10
15934;DHT22;8066;48.776;11.384;2022-07-23T08:37:51;31.50;45.10
15934;DHT22;8066;48.776;11.384;2022-07-23T08:40:18;31.40;45.10
15934;DHT22;8066;48.776;11.384;2022-07-23T08:42:47;31.30;44.90
15934;DHT22;8066;48.776;11.384;2022-07-23T08:45:17;31.30;45.00
15934;DHT22;8066;48.776;11.384;2022-07-23T08:47:48;31.20;44.90
15934;DHT22;8066;48.776;11.384;2022-07-23T08:50:18;31.20;44.70
15934;DHT22;8066;48.776;11.384;2022-07-23T08:52:45;31.20;44.60
15934;DHT22;8066;48.776;11.384;2022-07-23T08:55:12;31.20;44.60
15934;DHT22;8066;48.776;11.384;2022-07-23T08:57:39;31.20;44.70
15934;DHT22;8066;48.776;11.384;2022-07-23T09:00:06;31.20;45.10
15934;DHT22;8066;48.776;11.384;2022-07-23T09:02:39;31.40;45.60
15934;DHT22;8066;48.776;11.384;2022-07-23T09:05:09;31.60;45.60
15934;DHT22;8066;48.776;11.384;2022-07-23T09:07:37;31.80;45.80
15934;DHT22;8066;48.776;11.384;2022-07-23T09:10:10;32.10;45.80
15934;DHT22;8066;48.776;11.384;2022-07-23T09:12:38;32.40;45.10
15934;DHT22;8066;48.776;11.384;2022-07-23T09:15:06;32.70;45.10
15934;DHT22;8066;48.776;11.384;2022-07-23T09:17:39;33.00;44.30
15934;DHT22;8066;48.776;11.384;2022-07-23T09:20:13;33.20;43.60
15934;DHT22;8066;48.776;11.384;2022-07-23T09:22:45;33.40;43.20
15934;DHT22;8066;48.776;11.384;2022-07-23T09:25:15;33.50;42.70
15934;DHT22;8066;48.776;11.384;2022-07-23T09:27:50;33.80;42.60
15934;DHT22;8066;48.776;11.384;2022-07-23T09:30:20;33.90;42.00
15934;DHT22;8066;48.776;11.384;2022-07-23T09:33:08;34.10;42.40
15934;DHT22;8066;48.776;11.384;2022-07-23T09:35:49;34.30;41.60
15934;DHT22;8066;48.776;11.384;2022-07-23T09:38:19;34.60;41.50
15934;DHT22;8066;48.776;11.384;2022-07-23T09:41:05;34.80;41.80
15934;DHT22;8066;48.776;11.384;2022-07-23T09:43:33;35.00;40.30
15934;DHT22;8066;48.776;11.384;2022-07-23T09:46:21;35.20;40.90
15934;DHT22;8066;48.776;11.384;2022-07-23T09:48:49;35.50;40.10
15934;DHT22;8066;48.776;11.384;2022-07-23T09:51:19;35.90;40.60
15934;DHT22;8066;48.776;11.384;2022-07-23T09:53:50;36.10;40.00
15934;DHT22;8066;48.776;11.384;2022-07-23T09:56:20;36.40;39.80
15934;DHT22;8066;48.776;11.384;2022-07-23T09:58:50;36.80;38.90
15934;DHT22;8066;48.776;11.384;2022-07-23T10:01:17;37.10;38.30
15934;DHT22;8066;48.776;11.384;2022-07-23T10:03:47;37.30;37.90
15934;DHT22;8066;48.776;11.384;2022-07-23T10:06:14;37.70;37.20
15934;DHT22;8066;48.776;11.384;2022-07-23T10:08:45;37.80;36.70
15934;DHT22;8066;48.776;11.384;2022-07-23T10:11:14;38.10;35.60
15934;DHT22;8066;48.776;11.384;2022-07-23T10:13:43;38.10;35.60
15934;DHT22;8066;48.776;11.384;2022-07-23T10:16:18;38.10;34.80
15934;DHT22;8066;48.776;11.384;2022-07-23T10:18:45;38.20;34.50
15934;DHT22;8066;48.776;11.384;2022-07-23T10:21:18;38.10;34.00
15934;DHT22;8066;48.776;11.384;2022-07-23T10:24:04;38.20;33.30
15934;DHT22;8066;48.776;11.384;2022-07-23T10:26:44;38.30;32.50
15934;DHT22;8066;48.776;11.384;2022-07-23T10:29:29;38.50;33.30
15934;DHT22;8066;48.776;11.384;2022-07-23T10:32:17;38.50;32.70
15934;DHT22;8066;48.776;11.384;2022-07-23T10:34:58;38.50;32.70
15934;DHT22;8066;48.776;11.384;2022-07-23T10:37:34;38.60;33.00
15934;DHT22;8066;48.776;11.384;2022-07-23T10:40:13;38.90;32.60
15934;DHT22;8066;48.776;11.384;2022-07-23T10:42:43;38.90;31.60
15934;DHT22;8066;48.776;11.384;2022-07-23T10:45:26;39.00;32.20
15934;DHT22;8066;48.776;11.384;2022-07-23T10:47:56;39.10;31.50
15934;DHT22;8066;48.776;11.384;2022-07-23T10:50:39;39.20;32.10
15934;DHT22;8066;48.776;11.384;2022-07-23T10:53:15;39.30;32.10
15934;DHT22;8066;48.776;11.384;2022-07-23T10:55:47;39.50;31.10
15934;DHT22;8066;48.776;11.384;2022-07-23T10:58:46;39.60;31.00
15934;DHT22;8066;48.776;11.384;2022-07-23T11:01:32;39.80;30.90
15934;DHT22;8066;48.776;11.384;2022-07-23T11:04:00;40.00;30.00
15934;DHT22;8066;48.776;11.384;2022-07-23T11:09:40;40.20;30.10
15934;DHT22;8066;48.776;11.384;2022-07-23T11:12:34;40.40;30.00
15934;DHT22;8066;48.776;11.384;2022-07-23T11:15:05;40.50;29.90
15934;DHT22;8066;48.776;11.384;2022-07-23T11:17:36;40.70;30.00
15934;DHT22;8066;48.776;11.384;2022-07-23T11:20:16;40.90;30.00
15934;DHT22;8066;48.776;11.384;2022-07-23T11:22:48;41.10;29.40
15934;DHT22;8066;48.776;11.384;2022-07-23T11:25:33;41.40;29.60
15934;DHT22;8066;48.776;11.384;2022-07-23T11:28:15;41.40;28.70
15934;DHT22;8066;48.776;11.384;2022-07-23T11:30:47;41.50;28.80
15934;DHT22;8066;48.776;11.384;2022-07-23T11:33:25;41.60;29.00
15934;DHT22;8066;48.776;11.384;2022-07-23T11:36:03;41.60;28.90
15934;DHT22;8066;48.776;11.384;2022-07-23T11:38:31;41.60;28.30
15934;DHT22;8066;48.776;11.384;2022-07-23T11:40:59;41.50;28.60
15934;DHT22;8066;48.776;11.384;2022-07-23T11:43:27;41.50;28.40
15934;DHT22;8066;48.776;11.384;2022-07-23T11:45:57;41.50;28.00
15934;DHT22;8066;48.776;11.384;2022-07-23T11:48:27;41.30;27.70
15934;DHT22;8066;48.776;11.384;2022-07-23T11:50:55;41.10;27.80
15934;DHT22;8066;48.776;11.384;2022-07-23T11:53:23;41.00;27.80
15934;DHT22;8066;48.776;11.384;2022-07-23T11:55:51;40.70;27.80
15934;DHT22;8066;48.776;11.384;2022-07-23T11:58:19;40.40;27.80
15934;DHT22;8066;48.776;11.384;2022-07-23T12:00:48;40.20;28.10
15934;DHT22;8066;48.776;11.384;2022-07-23T12:03:16;40.00;28.30
15934;DHT22;8066;48.776;11.384;2022-07-23T12:05:43;40.00;28.50
15934;DHT22;8066;48.776;11.384;2022-07-23T12:08:10;40.10;28.80
15934;DHT22;8066;48.776;11.384;2022-07-23T12:14:16;40.30;28.10
15934;DHT22;8066;48.776;11.384;2022-07-23T12:16:44;40.30;28.20
15934;DHT22;8066;48.776;11.384;2022-07-23T12:19:11;40.10;28.00
15934;DHT22;8066;48.776;11.384;2022-07-23T12:21:39;40.00;28.10
15934;DHT22;8066;48.776;11.384;2022-07-23T12:24:07;39.90;28.40
15934;DHT22;8066;48.776;11.384;2022-07-23T12:26:34;39.80;28.40
15934;DHT22;8066;48.776;11.384;2022-07-23T12:29:01;39.80;28.40
15934;DHT22;8066;48.776;11.384;2022-07-23T12:31:27;39.90;28.40
15934;DHT22;8066;48.776;11.384;2022-07-23T12:33:56;39.70;28.40
15934;DHT22;8066;48.776;11.384;2022-07-23T12:36:37;39.70;28.70
15934;DHT22;8066;48.776;11.384;2022-07-23T12:39:05;39.80;28.50
15934;DHT22;8066;48.776;11.384;2022-07-23T12:41:50;39.90;28.70
15934;DHT22;8066;48.776;11.384;2022-07-23T12:44:17;40.20;28.40
15934;DHT22;8066;48.776;11.384;2022-07-23T12:46:49;40.30;28.60
15934;DHT22;8066;48.776;11.384;2022-07-23T12:49:26;40.40;28.00
15934;DHT22;8066;48.776;11.384;2022-07-23T12:51:53;40.50;27.90
15934;DHT22;8066;48.776;11.384;2022-07-23T12:54:27;40.50;27.90
15934;DHT22;8066;48.776;11.384;2022-07-23T12:56:54;40.40;27.50
15934;DHT22;8066;48.776;11.384;2022-07-23T12:59:21;40.20;27.60
15934;DHT22;8066;48.776;11.384;2022-07-23T13:01:54;40.20;27.60
15934;DHT22;8066;48.776;11.384;2022-07-23T13:04:26;40.10;27.40
15934;DHT22;8066;48.776;11.384;2022-07-23T13:06:54;39.80;27.60
15934;DHT22;8066;48.776;11.384;2022-07-23T13:09:25;39.60;27.80
15934;DHT22;8066;48.776;11.384;2022-07-23T13:11:54;39.40;27.70
15934;DHT22;8066;48.776;11.384;2022-07-23T13:14:23;39.20;27.60
15934;DHT22;8066;48.776;11.384;2022-07-23T13:16:52;39.00;27.70
15934;DHT22;8066;48.776;11.384;2022-07-23T13:19:20;38.80;27.70
15934;DHT22;8066;48.776;11.384;2022-07-23T13:21:49;38.50;27.80
15934;DHT22;8066;48.776;11.384;2022-07-23T13:24:16;38.30;28.00
15934;DHT22;8066;48.776;11.384;2022-07-23T13:26:43;38.00;28.10
15934;DHT22;8066;48.776;11.384;2022-07-23T13:29:15;37.90;28.30
15934;DHT22;8066;48.776;11.384;2022-07-23T13:31:41;37.70;28.40
15934;DHT22;8066;48.776;11.384;2022-07-23T13:34:08;37.60;28.50
15934;DHT22;8066;48.776;11.384;2022-07-23T13:36:36;37.50;28.60
15934;DHT22;8066;48.776;11.384;2022-07-23T13:39:04;37.30;28.60
15934;DHT22;8066;48.776;11.384;2022-07-23T13:41:32;37.30;28.80
15934;DHT22;8066;48.776;11.384;2022-07-23T13:43:59;37.20;28.80
15934;DHT22;8066;48.776;11.384;2022-07-23T13:46:26;37.10;29.00
15934;DHT22;8066;48.776;11.384;2022-07-23T13:48:53;37.00;29.10
15934;DHT22;8066;48.776;11.384;2022-07-23T13:51:20;36.90;29.30
15934;DHT22;8066;48.776;11.384;2022-07-23T13:53:47;36.80;29.60
15934;DHT22;8066;48.776;11.384;2022-07-23T13:56:15;36.70;29.80
15934;DHT22;8066;48.776;11.384;2022-07-23T13:58:42;36.70;29.90
15934;DHT22;8066;48.776;11.384;2022-07-23T14:01:09;36.50;29.90
15934;DHT22;8066;48.776;11.384;2022-07-23T14:03:36;36.60;29.80
15934;DHT22;8066;48.776;11.384;2022-07-23T14:06:03;36.60;29.90
15934;DHT22;8066;48.776;11.384;2022-07-23T14:08:31;36.50;30.00
15934;DHT22;8066;48.776;11.384;2022-07-23T14:10:58;36.50;30.20
15934;DHT22;8066;48.776;11.384;2022-07-23T14:13:26;36.50;30.00
15934;DHT22;8066;48.776;11.384;2022-07-23T14:15:53;36.50;30.10
15934;DHT22;8066;48.776;11.384;2022-07-23T14:18:20;36.50;30.00
15934;DHT22;8066;48.776;11.384;2022-07-23T14:20:47;36.50;30.10
15934;DHT22;8066;48.776;11.384;2022-07-23T14:23:13;36.40;30.10
15934;DHT22;8066;48.776;11.384;2022-07-23T14:25:40;36.40;30.20
15934;DHT22;8066;48.776;11.384;2022-07-23T14:28:07;36.40;30.30
15934;DHT22;8066;48.776;11.384;2022-07-23T14:30:36;36.20;30.50
15934;DHT22;8066;48.776;11.384;2022-07-23T14:33:03;36.20;31.10
15934;DHT22;8066;48.776;11.384;2022-07-23T14:35:30;36.00;31.20
15934;DHT22;8066;48.776;11.384;2022-07-23T14:37:56;36.00;31.40
15934;DHT22;8066;48.776;11.384;2022-07-23T14:40:24;35.90;31.60
15934;DHT22;8066;48.776;11.384;2022-07-23T14:42:51;35.90;31.30
15934;DHT22;8066;48.776;11.384;2022-07-23T14:45:18;35.90;31.20
15934;DHT22;8066;48.776;11.384;2022-07-23T14:47:46;35.90;31.20
15934;DHT22;8066;48.776;11.384;2022-07-23T14:50:13;36.00;31.30
15934;DHT22;8066;48.776;11.384;2022-07-23T14:52:40;36.00;31.00
15934;DHT22;8066;48.776;11.384;2022-07-23T14:55:08;36.00;30.90
15934;DHT22;8066;48.776;11.384;2022-07-23T14:57:35;36.00;31.00
15934;DHT22;8066;48.776;11.384;2022-07-23T15:00:03;36.00;30.90
15934;DHT22;8066;48.776;11.384;2022-07-23T15:02:31;36.00;31.00
15934;DHT22;8066;48.776;11.384;2022-07-23T15:05:00;36.10;30.90
15934;DHT22;8066;48.776;11.384;2022-07-23T15:07:28;36.00;31.70
15934;DHT22;8066;48.776;11.384;2022-07-23T15:09:55;35.90;31.80
15934;DHT22;8066;48.776;11.384;2022-07-23T15:12:22;35.90;32.30
15934;DHT22;8066;48.776;11.384;2022-07-23T15:14:49;35.90;32.60
15934;DHT22;8066;48.776;11.384;2022-07-23T15:17:16;35.90;32.60
15934;DHT22;8066;48.776;11.384;2022-07-23T15:19:43;35.80;32.50
15934;DHT22;8066;48.776;11.384;2022-07-23T15:22:12;35.70;32.40
15934;DHT22;8066;48.776;11.384;2022-07-23T15:24:39;35.70;32.50
15934;DHT22;8066;48.776;11.384;2022-07-23T15:27:07;35.70;32.70
15934;DHT22;8066;48.776;11.384;2022-07-23T15:29:34;35.60;32.80
15934;DHT22;8066;48.776;11.384;2022-07-23T15:32:02;35.60;33.10
15934;DHT22;8066;48.776;11.384;2022-07-23T15:34:29;35.60;33.00
15934;DHT22;8066;48.776;11.384;2022-07-23T15:36:59;35.50;32.90
15934;DHT22;8066;48.776;11.384;2022-07-23T15:39:27;35.50;33.20
15934;DHT22;8066;48.776;11.384;2022-07-23T15:41:57;35.40;33.20
15934;DHT22;8066;48.776;11.384;2022-07-23T15:44:24;35.40;33.10
15934;DHT22;8066;48.776;11.384;2022-07-23T15:46:51;35.40;33.10